sensor_id;sensor_type;location;lat;lon;timestamp;P1;durP1;ratioP1;P2;durP2;ratioP2
29720;SDS011;23665;51.044;3.748;2022-10-26T00:00:26;9.73;;;4.17;;
29720;SDS011;23665;51.044;3.748;2022-10-26T00:02:53;11.30;;;3.77;;
29720;SDS011;23665;51.044;3.748;2022-10-26T00:05:20;12.47;;;3.50;;
29720;SDS011;23665;51.044;3.748;2022-10-26T00:07:46;8.53;;;3.87;;
29720;SDS011;23665;51.044;3.748;2022-10-26T00:10:12;11.73;;;4.53;;
29720;SDS011;23665;51.044;3.748;2022-10-26T00:12:38;11.40;;;4.57;;
29720;SDS011;23665;51.044;3.748;2022-10-26T00:15:05;11.10;;;3.83;;
29720;SDS011;23665;51.044;3.748;2022-10-26T00:17:31;8.93;;;3.53;;
29720;SDS011;23665;51.044;3.748;2022-10-26T00:19:57;9.63;;;3.93;;
29720;SDS011;23665;51.044;3.748;2022-10-26T00:22:24;9.30;;;3.67;;
29720;SDS011;23665;51.044;3.748;2022-10-26T00:24:51;9.17;;;3.73;;
29720;SDS011;23665;51.044;3.748;2022-10-26T00:27:17;8.80;;;3.03;;
29720;SDS011;23665;51.044;3.748;2022-10-26T00:29:46;10.33;;;3.70;;
29720;SDS011;23665;51.044;3.748;2022-10-26T00:32:12;12.50;;;3.23;;
29720;SDS011;23665;51.044;3.748;2022-10-26T00:34:37;12.77;;;3.33;;
29720;SDS011;23665;51.044;3.748;2022-10-26T00:37:03;9.40;;;3.73;;
29720;SDS011;23665;51.044;3.748;2022-10-26T00:39:29;10.10;;;3.03;;
29720;SDS011;23665;51.044;3.748;2022-10-26T00:41:55;9.50;;;2.90;;
29720;SDS011;23665;51.044;3.748;2022-10-26T00:47:13;7.77;;;3.70;;
29720;SDS011;23665;51.044;3.748;2022-10-26T00:49:45;8.10;;;3.20;;
29720;SDS011;23665;51.044;3.748;2022-10-26T00:52:13;11.20;;;2.77;;
29720;SDS011;23665;51.044;3.748;2022-10-26T00:54:40;10.17;;;3.20;;
29720;SDS011;23665;51.044;3.748;2022-10-26T00:57:07;9.30;;;3.40;;
29720;SDS011;23665;51.044;3.748;2022-10-26T00:59:33;10.93;;;3.30;;
29720;SDS011;23665;51.044;3.748;2022-10-26T01:01:59;10.10;;;3.23;;
29720;SDS011;23665;51.044;3.748;2022-10-26T01:04:25;11.70;;;3.20;;
29720;SDS011;23665;51.044;3.748;2022-10-26T01:06:51;9.47;;;3.67;;
29720;SDS011;23665;51.044;3.748;2022-10-26T01:09:17;10.23;;;2.77;;
29720;SDS011;23665;51.044;3.748;2022-10-26T01:11:44;7.90;;;2.80;;
29720;SDS011;23665;51.044;3.748;2022-10-26T01:14:11;9.80;;;3.00;;
29720;SDS011;23665;51.044;3.748;2022-10-26T01:25:42;11.13;;;3.20;;
29720;SDS011;23665;51.044;3.748;2022-10-26T01:27:45;8.03;;;2.77;;
29720;SDS011;23665;51.044;3.748;2022-10-26T01:35:50;8.43;;;3.00;;
29720;SDS011;23665;51.044;3.748;2022-10-26T01:38:30;14.73;;;2.87;;
29720;SDS011;23665;51.044;3.748;2022-10-26T01:43:38;9.87;;;2.70;;
29720;SDS011;23665;51.044;3.748;2022-10-26T01:46:07;9.47;;;2.97;;
29720;SDS011;23665;51.044;3.748;2022-10-26T01:48:35;8.93;;;2.70;;
29720;SDS011;23665;51.044;3.748;2022-10-26T01:51:02;9.23;;;3.63;;
29720;SDS011;23665;51.044;3.748;2022-10-26T01:53:30;9.20;;;2.80;;
29720;SDS011;23665;51.044;3.748;2022-10-26T01:55:55;9.00;;;3.10;;
29720;SDS011;23665;51.044;3.748;2022-10-26T02:01:20;7.03;;;3.00;;
29720;SDS011;23665;51.044;3.748;2022-10-26T02:06:59;8.00;;;2.83;;
29720;SDS011;23665;51.044;3.748;2022-10-26T02:12:19;7.90;;;2.60;;
29720;SDS011;23665;51.044;3.748;2022-10-26T02:15:28;6.83;;;2.07;;
29720;SDS011;23665;51.044;3.748;2022-10-26T02:20:43;10.93;;;2.30;;
29720;SDS011;23665;51.044;3.748;2022-10-26T02:23:14;10.73;;;2.57;;
29720;SDS011;23665;51.044;3.748;2022-10-26T02:25:45;8.93;;;2.60;;
29720;SDS011;23665;51.044;3.748;2022-10-26T02:28:24;7.00;;;2.80;;
29720;SDS011;23665;51.044;3.748;2022-10-26T02:30:55;9.37;;;2.73;;
29720;SDS011;23665;51.044;3.748;2022-10-26T02:33:25;11.87;;;2.57;;
29720;SDS011;23665;51.044;3.748;2022-10-26T02:35:55;12.40;;;2.83;;
29720;SDS011;23665;51.044;3.748;2022-10-26T02:38:25;13.87;;;3.53;;
29720;SDS011;23665;51.044;3.748;2022-10-26T02:40:53;7.13;;;2.43;;
29720;SDS011;23665;51.044;3.748;2022-10-26T02:43:20;10.47;;;2.27;;
29720;SDS011;23665;51.044;3.748;2022-10-26T02:45:52;11.07;;;2.90;;
29720;SDS011;23665;51.044;3.748;2022-10-26T02:48:25;7.87;;;2.50;;
29720;SDS011;23665;51.044;3.748;2022-10-26T02:54:46;6.63;;;2.13;;
29720;SDS011;23665;51.044;3.748;2022-10-26T02:56:51;8.47;;;2.67;;
29720;SDS011;23665;51.044;3.748;2022-10-26T02:59:42;7.07;;;2.47;;
29720;SDS011;23665;51.044;3.748;2022-10-26T03:02:12;6.10;;;2.10;;
29720;SDS011;23665;51.044;3.748;2022-10-26T03:04:40;11.30;;;2.57;;
29720;SDS011;23665;51.044;3.748;2022-10-26T03:07:06;7.20;;;2.23;;
29720;SDS011;23665;51.044;3.748;2022-10-26T03:09:31;10.97;;;3.50;;
29720;SDS011;23665;51.044;3.748;2022-10-26T03:11:57;10.07;;;2.23;;
29720;SDS011;23665;51.044;3.748;2022-10-26T03:14:23;8.83;;;2.20;;
29720;SDS011;23665;51.044;3.748;2022-10-26T03:16:49;7.33;;;3.10;;
29720;SDS011;23665;51.044;3.748;2022-10-26T03:19:14;6.63;;;2.20;;
29720;SDS011;23665;51.044;3.748;2022-10-26T03:21:40;16.23;;;2.43;;
29720;SDS011;23665;51.044;3.748;2022-10-26T03:24:09;9.20;;;2.90;;
29720;SDS011;23665;51.044;3.748;2022-10-26T03:26:35;8.30;;;2.67;;
29720;SDS011;23665;51.044;3.748;2022-10-26T03:29:01;5.20;;;2.00;;
29720;SDS011;23665;51.044;3.748;2022-10-26T03:31:27;5.20;;;2.00;;
29720;SDS011;23665;51.044;3.748;2022-10-26T03:33:53;7.83;;;2.90;;
29720;SDS011;23665;51.044;3.748;2022-10-26T03:36:18;6.87;;;2.20;;
29720;SDS011;23665;51.044;3.748;2022-10-26T03:38:44;8.57;;;2.73;;
29720;SDS011;23665;51.044;3.748;2022-10-26T03:41:10;7.20;;;2.43;;
29720;SDS011;23665;51.044;3.748;2022-10-26T03:43:36;8.97;;;2.60;;
29720;SDS011;23665;51.044;3.748;2022-10-26T03:46:02;7.10;;;2.33;;
29720;SDS011;23665;51.044;3.748;2022-10-26T03:48:28;7.10;;;2.57;;
29720;SDS011;23665;51.044;3.748;2022-10-26T03:50:57;14.73;;;2.70;;
29720;SDS011;23665;51.044;3.748;2022-10-26T03:53:24;8.67;;;2.13;;
29720;SDS011;23665;51.044;3.748;2022-10-26T03:55:50;7.40;;;2.60;;
29720;SDS011;23665;51.044;3.748;2022-10-26T03:58:16;9.80;;;2.80;;
29720;SDS011;23665;51.044;3.748;2022-10-26T04:00:41;8.43;;;2.50;;
29720;SDS011;23665;51.044;3.748;2022-10-26T04:03:07;13.07;;;2.77;;
29720;SDS011;23665;51.044;3.748;2022-10-26T04:05:33;8.03;;;2.43;;
29720;SDS011;23665;51.044;3.748;2022-10-26T04:07:59;7.93;;;2.47;;
29720;SDS011;23665;51.044;3.748;2022-10-26T04:10:28;6.77;;;2.80;;
29720;SDS011;23665;51.044;3.748;2022-10-26T04:12:55;5.47;;;2.53;;
29720;SDS011;23665;51.044;3.748;2022-10-26T04:15:21;10.07;;;2.67;;
29720;SDS011;23665;51.044;3.748;2022-10-26T04:17:47;9.10;;;1.90;;
29720;SDS011;23665;51.044;3.748;2022-10-26T04:20:19;6.53;;;2.17;;
29720;SDS011;23665;51.044;3.748;2022-10-26T04:22:45;7.70;;;2.70;;
29720;SDS011;23665;51.044;3.748;2022-10-26T04:25:10;5.83;;;1.80;;
29720;SDS011;23665;51.044;3.748;2022-10-26T04:27:37;7.17;;;2.37;;
29720;SDS011;23665;51.044;3.748;2022-10-26T04:30:03;4.40;;;1.97;;
29720;SDS011;23665;51.044;3.748;2022-10-26T04:32:32;7.73;;;2.27;;
29720;SDS011;23665;51.044;3.748;2022-10-26T04:34:57;4.80;;;2.07;;
29720;SDS011;23665;51.044;3.748;2022-10-26T04:37:23;3.90;;;1.70;;
29720;SDS011;23665;51.044;3.748;2022-10-26T04:39:49;7.13;;;1.63;;
29720;SDS011;23665;51.044;3.748;2022-10-26T04:42:15;3.77;;;1.60;;
29720;SDS011;23665;51.044;3.748;2022-10-26T04:44:40;3.67;;;1.20;;
29720;SDS011;23665;51.044;3.748;2022-10-26T04:47:09;5.57;;;1.10;;
29720;SDS011;23665;51.044;3.748;2022-10-26T04:49:35;16.47;;;3.10;;
29720;SDS011;23665;51.044;3.748;2022-10-26T04:52:01;4.13;;;1.43;;
29720;SDS011;23665;51.044;3.748;2022-10-26T04:54:27;7.97;;;1.13;;
29720;SDS011;23665;51.044;3.748;2022-10-26T04:56:53;8.40;;;1.50;;
29720;SDS011;23665;51.044;3.748;2022-10-26T04:59:19;3.13;;;1.23;;
29720;SDS011;23665;51.044;3.748;2022-10-26T05:01:45;3.07;;;0.90;;
29720;SDS011;23665;51.044;3.748;2022-10-26T05:04:11;5.47;;;1.40;;
29720;SDS011;23665;51.044;3.748;2022-10-26T05:06:36;5.67;;;1.40;;
29720;SDS011;23665;51.044;3.748;2022-10-26T05:09:02;7.33;;;1.60;;
29720;SDS011;23665;51.044;3.748;2022-10-26T05:11:29;5.93;;;1.33;;
29720;SDS011;23665;51.044;3.748;2022-10-26T05:13:54;6.07;;;1.00;;
29720;SDS011;23665;51.044;3.748;2022-10-26T05:16:20;3.23;;;1.13;;
29720;SDS011;23665;51.044;3.748;2022-10-26T05:18:49;7.37;;;1.40;;
29720;SDS011;23665;51.044;3.748;2022-10-26T05:21:15;5.73;;;1.13;;
29720;SDS011;23665;51.044;3.748;2022-10-26T05:23:50;5.80;;;1.33;;
29720;SDS011;23665;51.044;3.748;2022-10-26T05:26:18;7.27;;;1.60;;
29720;SDS011;23665;51.044;3.748;2022-10-26T05:28:47;4.70;;;1.43;;
29720;SDS011;23665;51.044;3.748;2022-10-26T05:31:14;5.00;;;1.30;;
29720;SDS011;23665;51.044;3.748;2022-10-26T05:33:42;4.50;;;1.33;;
29720;SDS011;23665;51.044;3.748;2022-10-26T05:36:08;7.93;;;1.27;;
29720;SDS011;23665;51.044;3.748;2022-10-26T05:38:34;6.20;;;1.53;;
29720;SDS011;23665;51.044;3.748;2022-10-26T05:40:59;7.50;;;1.27;;
29720;SDS011;23665;51.044;3.748;2022-10-26T05:43:25;5.73;;;1.20;;
29720;SDS011;23665;51.044;3.748;2022-10-26T05:45:55;5.00;;;1.67;;
29720;SDS011;23665;51.044;3.748;2022-10-26T05:48:21;6.60;;;1.30;;
29720;SDS011;23665;51.044;3.748;2022-10-26T05:50:47;5.90;;;1.30;;
29720;SDS011;23665;51.044;3.748;2022-10-26T05:53:13;2.87;;;1.40;;
29720;SDS011;23665;51.044;3.748;2022-10-26T05:55:39;3.43;;;1.27;;
29720;SDS011;23665;51.044;3.748;2022-10-26T05:58:09;4.27;;;1.20;;
29720;SDS011;23665;51.044;3.748;2022-10-26T06:00:36;5.90;;;1.50;;
29720;SDS011;23665;51.044;3.748;2022-10-26T06:05:58;5.97;;;1.30;;
29720;SDS011;23665;51.044;3.748;2022-10-26T06:08:25;3.47;;;1.30;;
29720;SDS011;23665;51.044;3.748;2022-10-26T06:10:52;6.67;;;1.70;;
29720;SDS011;23665;51.044;3.748;2022-10-26T06:13:20;6.03;;;1.33;;
29720;SDS011;23665;51.044;3.748;2022-10-26T06:18:35;4.63;;;1.37;;
29720;SDS011;23665;51.044;3.748;2022-10-26T06:32:00;5.90;;;1.70;;
29720;SDS011;23665;51.044;3.748;2022-10-26T06:34:27;7.70;;;1.63;;
29720;SDS011;23665;51.044;3.748;2022-10-26T06:36:57;8.20;;;1.73;;
29720;SDS011;23665;51.044;3.748;2022-10-26T06:39:25;3.43;;;1.30;;
29720;SDS011;23665;51.044;3.748;2022-10-26T06:41:55;7.40;;;1.80;;
29720;SDS011;23665;51.044;3.748;2022-10-26T06:44:23;5.70;;;1.50;;
29720;SDS011;23665;51.044;3.748;2022-10-26T06:52:27;6.23;;;1.53;;
29720;SDS011;23665;51.044;3.748;2022-10-26T06:55:04;6.10;;;1.60;;
29720;SDS011;23665;51.044;3.748;2022-10-26T06:57:36;7.20;;;1.57;;
29720;SDS011;23665;51.044;3.748;2022-10-26T07:00:05;6.33;;;1.90;;
29720;SDS011;23665;51.044;3.748;2022-10-26T07:02:41;8.63;;;2.20;;
29720;SDS011;23665;51.044;3.748;2022-10-26T07:05:07;3.47;;;1.57;;
29720;SDS011;23665;51.044;3.748;2022-10-26T07:07:36;7.43;;;1.67;;
29720;SDS011;23665;51.044;3.748;2022-10-26T07:10:06;4.90;;;1.53;;
29720;SDS011;23665;51.044;3.748;2022-10-26T07:12:32;8.80;;;2.03;;
29720;SDS011;23665;51.044;3.748;2022-10-26T07:14:58;5.30;;;1.90;;
29720;SDS011;23665;51.044;3.748;2022-10-26T07:17:24;7.17;;;1.70;;
29720;SDS011;23665;51.044;3.748;2022-10-26T07:19:52;8.67;;;1.87;;
29720;SDS011;23665;51.044;3.748;2022-10-26T07:22:18;9.43;;;1.83;;
29720;SDS011;23665;51.044;3.748;2022-10-26T07:24:44;8.07;;;2.07;;
29720;SDS011;23665;51.044;3.748;2022-10-26T07:27:14;8.57;;;1.90;;
29720;SDS011;23665;51.044;3.748;2022-10-26T07:29:40;9.70;;;1.83;;
29720;SDS011;23665;51.044;3.748;2022-10-26T07:32:06;8.70;;;2.10;;
29720;SDS011;23665;51.044;3.748;2022-10-26T07:34:32;8.63;;;1.70;;
29720;SDS011;23665;51.044;3.748;2022-10-26T07:36:58;6.27;;;2.00;;
29720;SDS011;23665;51.044;3.748;2022-10-26T07:39:25;7.90;;;1.97;;
29720;SDS011;23665;51.044;3.748;2022-10-26T07:41:51;7.00;;;1.70;;
29720;SDS011;23665;51.044;3.748;2022-10-26T07:44:16;9.33;;;1.93;;
29720;SDS011;23665;51.044;3.748;2022-10-26T07:46:43;6.20;;;2.07;;
29720;SDS011;23665;51.044;3.748;2022-10-26T07:49:09;4.67;;;1.77;;
29720;SDS011;23665;51.044;3.748;2022-10-26T07:51:34;7.00;;;2.03;;
29720;SDS011;23665;51.044;3.748;2022-10-26T07:54:01;10.57;;;2.40;;
29720;SDS011;23665;51.044;3.748;2022-10-26T07:56:27;6.80;;;2.03;;
29720;SDS011;23665;51.044;3.748;2022-10-26T07:58:54;7.93;;;2.10;;
29720;SDS011;23665;51.044;3.748;2022-10-26T08:01:20;6.87;;;1.90;;
29720;SDS011;23665;51.044;3.748;2022-10-26T08:03:46;8.50;;;1.47;;
29720;SDS011;23665;51.044;3.748;2022-10-26T08:06:12;11.50;;;2.13;;
29720;SDS011;23665;51.044;3.748;2022-10-26T08:08:38;8.00;;;2.00;;
29720;SDS011;23665;51.044;3.748;2022-10-26T08:11:04;11.80;;;1.87;;
29720;SDS011;23665;51.044;3.748;2022-10-26T08:13:30;9.03;;;1.80;;
29720;SDS011;23665;51.044;3.748;2022-10-26T08:16:00;7.63;;;1.80;;
29720;SDS011;23665;51.044;3.748;2022-10-26T08:18:27;7.67;;;1.70;;
29720;SDS011;23665;51.044;3.748;2022-10-26T08:20:53;5.77;;;1.83;;
29720;SDS011;23665;51.044;3.748;2022-10-26T08:23:19;5.67;;;2.27;;
29720;SDS011;23665;51.044;3.748;2022-10-26T08:25:45;6.63;;;1.90;;
29720;SDS011;23665;51.044;3.748;2022-10-26T08:28:11;5.53;;;1.90;;
29720;SDS011;23665;51.044;3.748;2022-10-26T08:30:37;8.40;;;2.00;;
29720;SDS011;23665;51.044;3.748;2022-10-26T08:33:05;5.30;;;1.63;;
29720;SDS011;23665;51.044;3.748;2022-10-26T08:35:32;4.70;;;1.97;;
29720;SDS011;23665;51.044;3.748;2022-10-26T08:37:58;6.13;;;1.90;;
29720;SDS011;23665;51.044;3.748;2022-10-26T08:40:29;6.67;;;1.90;;
29720;SDS011;23665;51.044;3.748;2022-10-26T08:42:57;6.50;;;1.70;;
29720;SDS011;23665;51.044;3.748;2022-10-26T08:45:29;6.30;;;1.87;;
29720;SDS011;23665;51.044;3.748;2022-10-26T08:48:13;10.17;;;2.33;;
29720;SDS011;23665;51.044;3.748;2022-10-26T08:50:44;6.33;;;1.83;;
29720;SDS011;23665;51.044;3.748;2022-10-26T08:58:47;8.33;;;2.10;;
29720;SDS011;23665;51.044;3.748;2022-10-26T09:01:18;10.57;;;2.80;;
29720;SDS011;23665;51.044;3.748;2022-10-26T09:03:44;8.80;;;2.00;;
29720;SDS011;23665;51.044;3.748;2022-10-26T09:09:24;6.87;;;1.83;;
29720;SDS011;23665;51.044;3.748;2022-10-26T09:22:18;7.10;;;2.00;;
29720;SDS011;23665;51.044;3.748;2022-10-26T09:25:18;7.90;;;1.97;;
29720;SDS011;23665;51.044;3.748;2022-10-26T09:27:59;9.50;;;1.87;;
29720;SDS011;23665;51.044;3.748;2022-10-26T09:30:26;9.10;;;2.13;;
29720;SDS011;23665;51.044;3.748;2022-10-26T09:35:43;6.17;;;1.80;;
29720;SDS011;23665;51.044;3.748;2022-10-26T09:44:07;5.27;;;1.97;;
29720;SDS011;23665;51.044;3.748;2022-10-26T09:49:14;12.63;;;2.50;;
29720;SDS011;23665;51.044;3.748;2022-10-26T09:51:42;10.70;;;1.60;;
29720;SDS011;23665;51.044;3.748;2022-10-26T09:54:12;14.30;;;3.23;;
29720;SDS011;23665;51.044;3.748;2022-10-26T09:56:43;14.47;;;3.07;;
29720;SDS011;23665;51.044;3.748;2022-10-26T09:59:12;8.97;;;2.00;;
29720;SDS011;23665;51.044;3.748;2022-10-26T10:01:39;6.67;;;1.80;;
29720;SDS011;23665;51.044;3.748;2022-10-26T10:06:38;10.73;;;1.97;;
29720;SDS011;23665;51.044;3.748;2022-10-26T10:09:30;12.87;;;1.70;;
29720;SDS011;23665;51.044;3.748;2022-10-26T10:11:56;5.47;;;1.53;;
29720;SDS011;23665;51.044;3.748;2022-10-26T10:14:26;4.83;;;1.30;;
29720;SDS011;23665;51.044;3.748;2022-10-26T10:17:01;9.60;;;1.73;;
29720;SDS011;23665;51.044;3.748;2022-10-26T10:19:32;6.20;;;1.63;;
29720;SDS011;23665;51.044;3.748;2022-10-26T10:24:41;7.57;;;1.50;;
29720;SDS011;23665;51.044;3.748;2022-10-26T10:27:16;4.77;;;1.47;;
29720;SDS011;23665;51.044;3.748;2022-10-26T10:29:44;4.07;;;1.07;;
29720;SDS011;23665;51.044;3.748;2022-10-26T10:34:40;6.53;;;1.13;;
29720;SDS011;23665;51.044;3.748;2022-10-26T10:37:06;7.53;;;1.73;;
29720;SDS011;23665;51.044;3.748;2022-10-26T10:40:37;8.47;;;1.37;;
29720;SDS011;23665;51.044;3.748;2022-10-26T10:42:49;4.00;;;1.20;;
29720;SDS011;23665;51.044;3.748;2022-10-26T10:45:20;4.90;;;1.63;;
29720;SDS011;23665;51.044;3.748;2022-10-26T10:48:02;7.83;;;1.63;;
29720;SDS011;23665;51.044;3.748;2022-10-26T10:50:29;11.43;;;1.83;;
29720;SDS011;23665;51.044;3.748;2022-10-26T11:01:48;4.73;;;1.30;;
29720;SDS011;23665;51.044;3.748;2022-10-26T11:04:33;6.03;;;1.67;;
29720;SDS011;23665;51.044;3.748;2022-10-26T11:07:30;5.70;;;1.33;;
29720;SDS011;23665;51.044;3.748;2022-10-26T11:10:01;10.13;;;1.63;;
29720;SDS011;23665;51.044;3.748;2022-10-26T11:12:32;8.30;;;1.30;;
29720;SDS011;23665;51.044;3.748;2022-10-26T11:15:19;5.40;;;1.13;;
29720;SDS011;23665;51.044;3.748;2022-10-26T11:17:57;9.03;;;3.30;;
29720;SDS011;23665;51.044;3.748;2022-10-26T11:23:47;5.03;;;1.73;;
29720;SDS011;23665;51.044;3.748;2022-10-26T11:26:32;7.53;;;1.40;;
29720;SDS011;23665;51.044;3.748;2022-10-26T11:29:01;6.07;;;1.43;;
29720;SDS011;23665;51.044;3.748;2022-10-26T11:31:36;10.70;;;1.70;;
29720;SDS011;23665;51.044;3.748;2022-10-26T11:34:16;6.23;;;1.20;;
29720;SDS011;23665;51.044;3.748;2022-10-26T11:37:20;10.00;;;1.73;;
29720;SDS011;23665;51.044;3.748;2022-10-26T11:40:07;8.87;;;1.63;;
29720;SDS011;23665;51.044;3.748;2022-10-26T11:42:43;7.20;;;1.17;;
29720;SDS011;23665;51.044;3.748;2022-10-26T11:45:34;8.53;;;1.70;;
29720;SDS011;23665;51.044;3.748;2022-10-26T11:50:53;5.30;;;1.63;;
29720;SDS011;23665;51.044;3.748;2022-10-26T11:53:35;9.17;;;1.87;;
29720;SDS011;23665;51.044;3.748;2022-10-26T11:56:04;4.37;;;1.07;;
29720;SDS011;23665;51.044;3.748;2022-10-26T11:58:48;13.33;;;1.80;;
29720;SDS011;23665;51.044;3.748;2022-10-26T12:01:14;6.83;;;1.50;;
29720;SDS011;23665;51.044;3.748;2022-10-26T12:03:42;10.27;;;1.67;;
29720;SDS011;23665;51.044;3.748;2022-10-26T12:06:17;4.20;;;1.07;;
29720;SDS011;23665;51.044;3.748;2022-10-26T12:08:49;5.20;;;1.10;;
29720;SDS011;23665;51.044;3.748;2022-10-26T12:14:00;7.07;;;1.50;;
29720;SDS011;23665;51.044;3.748;2022-10-26T12:21:55;7.33;;;1.63;;
29720;SDS011;23665;51.044;3.748;2022-10-26T12:26:56;11.80;;;1.77;;
29720;SDS011;23665;51.044;3.748;2022-10-26T12:29:30;7.20;;;1.40;;
29720;SDS011;23665;51.044;3.748;2022-10-26T12:31:57;6.13;;;1.50;;
29720;SDS011;23665;51.044;3.748;2022-10-26T12:34:24;10.73;;;1.40;;
29720;SDS011;23665;51.044;3.748;2022-10-26T12:37:34;6.10;;;1.20;;
29720;SDS011;23665;51.044;3.748;2022-10-26T12:45:38;6.70;;;1.17;;
29720;SDS011;23665;51.044;3.748;2022-10-26T12:48:21;4.20;;;0.97;;
29720;SDS011;23665;51.044;3.748;2022-10-26T12:54:02;5.10;;;1.23;;
29720;SDS011;23665;51.044;3.748;2022-10-26T12:56:55;5.37;;;1.03;;
29720;SDS011;23665;51.044;3.748;2022-10-26T12:59:46;5.40;;;1.30;;
29720;SDS011;23665;51.044;3.748;2022-10-26T13:02:30;4.70;;;1.00;;
29720;SDS011;23665;51.044;3.748;2022-10-26T13:08:21;16.17;;;4.50;;
29720;SDS011;23665;51.044;3.748;2022-10-26T13:11:03;6.93;;;1.37;;
29720;SDS011;23665;51.044;3.748;2022-10-26T13:13:31;9.00;;;1.20;;
29720;SDS011;23665;51.044;3.748;2022-10-26T13:15:59;5.13;;;1.07;;
29720;SDS011;23665;51.044;3.748;2022-10-26T13:18:26;6.53;;;1.67;;
29720;SDS011;23665;51.044;3.748;2022-10-26T13:21:09;6.73;;;1.27;;
29720;SDS011;23665;51.044;3.748;2022-10-26T13:23:39;6.50;;;1.43;;
29720;SDS011;23665;51.044;3.748;2022-10-26T13:26:09;11.83;;;1.03;;
29720;SDS011;23665;51.044;3.748;2022-10-26T13:31:03;4.40;;;1.03;;
29720;SDS011;23665;51.044;3.748;2022-10-26T13:33:39;6.40;;;1.07;;
29720;SDS011;23665;51.044;3.748;2022-10-26T13:36:50;8.17;;;1.37;;
29720;SDS011;23665;51.044;3.748;2022-10-26T13:38:59;6.33;;;1.40;;
29720;SDS011;23665;51.044;3.748;2022-10-26T13:41:36;7.70;;;1.50;;
29720;SDS011;23665;51.044;3.748;2022-10-26T13:44:04;5.97;;;1.17;;
29720;SDS011;23665;51.044;3.748;2022-10-26T13:46:36;8.37;;;1.83;;
29720;SDS011;23665;51.044;3.748;2022-10-26T13:49:16;5.27;;;1.20;;
29720;SDS011;23665;51.044;3.748;2022-10-26T13:51:46;5.87;;;1.10;;
29720;SDS011;23665;51.044;3.748;2022-10-26T13:57:14;5.57;;;1.07;;
29720;SDS011;23665;51.044;3.748;2022-10-26T13:59:52;3.47;;;0.90;;
29720;SDS011;23665;51.044;3.748;2022-10-26T14:02:25;10.27;;;0.90;;
29720;SDS011;23665;51.044;3.748;2022-10-26T14:05:01;3.30;;;0.87;;
29720;SDS011;23665;51.044;3.748;2022-10-26T14:07:50;6.73;;;0.80;;
29720;SDS011;23665;51.044;3.748;2022-10-26T14:12:56;10.90;;;1.27;;
29720;SDS011;23665;51.044;3.748;2022-10-26T14:15:23;7.63;;;1.37;;
29720;SDS011;23665;51.044;3.748;2022-10-26T14:17:52;5.37;;;1.13;;
29720;SDS011;23665;51.044;3.748;2022-10-26T14:20:20;6.83;;;1.17;;
29720;SDS011;23665;51.044;3.748;2022-10-26T14:22:48;6.67;;;1.37;;
29720;SDS011;23665;51.044;3.748;2022-10-26T14:25:18;4.53;;;1.00;;
29720;SDS011;23665;51.044;3.748;2022-10-26T14:27:49;6.57;;;1.30;;
29720;SDS011;23665;51.044;3.748;2022-10-26T14:30:37;5.50;;;1.07;;
29720;SDS011;23665;51.044;3.748;2022-10-26T14:33:02;7.10;;;1.57;;
29720;SDS011;23665;51.044;3.748;2022-10-26T14:35:42;8.93;;;1.13;;
29720;SDS011;23665;51.044;3.748;2022-10-26T14:38:19;9.40;;;1.83;;
29720;SDS011;23665;51.044;3.748;2022-10-26T14:40:50;4.87;;;1.20;;
29720;SDS011;23665;51.044;3.748;2022-10-26T14:43:20;9.57;;;1.00;;
29720;SDS011;23665;51.044;3.748;2022-10-26T14:45:49;3.30;;;1.00;;
29720;SDS011;23665;51.044;3.748;2022-10-26T14:48:20;10.67;;;1.83;;
29720;SDS011;23665;51.044;3.748;2022-10-26T14:51:01;8.97;;;1.20;;
29720;SDS011;23665;51.044;3.748;2022-10-26T14:53:50;5.40;;;1.27;;
29720;SDS011;23665;51.044;3.748;2022-10-26T14:56:23;7.70;;;0.90;;
29720;SDS011;23665;51.044;3.748;2022-10-26T14:58:53;5.90;;;1.40;;
29720;SDS011;23665;51.044;3.748;2022-10-26T15:03:57;4.67;;;1.20;;
29720;SDS011;23665;51.044;3.748;2022-10-26T15:06:33;6.23;;;1.50;;
29720;SDS011;23665;51.044;3.748;2022-10-26T15:09:03;5.93;;;1.00;;
29720;SDS011;23665;51.044;3.748;2022-10-26T15:11:31;6.97;;;1.10;;
29720;SDS011;23665;51.044;3.748;2022-10-26T15:13:59;5.87;;;1.17;;
29720;SDS011;23665;51.044;3.748;2022-10-26T15:16:37;5.50;;;1.00;;
29720;SDS011;23665;51.044;3.748;2022-10-26T15:19:08;6.20;;;1.77;;
29720;SDS011;23665;51.044;3.748;2022-10-26T15:21:44;8.33;;;1.97;;
29720;SDS011;23665;51.044;3.748;2022-10-26T15:24:12;7.83;;;1.10;;
29720;SDS011;23665;51.044;3.748;2022-10-26T15:26:44;6.07;;;0.97;;
29720;SDS011;23665;51.044;3.748;2022-10-26T15:32:14;7.77;;;1.40;;
29720;SDS011;23665;51.044;3.748;2022-10-26T15:35:20;4.43;;;0.97;;
29720;SDS011;23665;51.044;3.748;2022-10-26T15:37:49;5.33;;;1.87;;
29720;SDS011;23665;51.044;3.748;2022-10-26T15:40:16;6.10;;;1.70;;
29720;SDS011;23665;51.044;3.748;2022-10-26T15:42:42;5.17;;;1.40;;
29720;SDS011;23665;51.044;3.748;2022-10-26T15:45:17;7.83;;;2.23;;
29720;SDS011;23665;51.044;3.748;2022-10-26T15:47:50;8.23;;;1.27;;
29720;SDS011;23665;51.044;3.748;2022-10-26T15:50:21;6.53;;;1.50;;
29720;SDS011;23665;51.044;3.748;2022-10-26T15:52:49;6.73;;;1.10;;
29720;SDS011;23665;51.044;3.748;2022-10-26T15:55:22;6.03;;;1.47;;
29720;SDS011;23665;51.044;3.748;2022-10-26T15:57:49;4.90;;;1.40;;
29720;SDS011;23665;51.044;3.748;2022-10-26T16:00:15;9.17;;;1.73;;
29720;SDS011;23665;51.044;3.748;2022-10-26T16:02:42;10.50;;;1.50;;
29720;SDS011;23665;51.044;3.748;2022-10-26T16:05:09;8.10;;;1.97;;
29720;SDS011;23665;51.044;3.748;2022-10-26T16:07:37;7.97;;;2.77;;
29720;SDS011;23665;51.044;3.748;2022-10-26T16:10:05;8.17;;;1.77;;
29720;SDS011;23665;51.044;3.748;2022-10-26T16:12:31;5.93;;;1.33;;
29720;SDS011;23665;51.044;3.748;2022-10-26T16:14:56;6.83;;;2.27;;
29720;SDS011;23665;51.044;3.748;2022-10-26T16:17:24;6.40;;;1.97;;
29720;SDS011;23665;51.044;3.748;2022-10-26T16:19:50;6.50;;;1.50;;
29720;SDS011;23665;51.044;3.748;2022-10-26T16:22:16;7.43;;;1.83;;
29720;SDS011;23665;51.044;3.748;2022-10-26T16:24:42;7.83;;;1.70;;
29720;SDS011;23665;51.044;3.748;2022-10-26T16:27:07;10.47;;;2.00;;
29720;SDS011;23665;51.044;3.748;2022-10-26T16:29:33;6.13;;;1.80;;
29720;SDS011;23665;51.044;3.748;2022-10-26T16:31:59;6.23;;;1.83;;
29720;SDS011;23665;51.044;3.748;2022-10-26T16:34:24;8.10;;;2.23;;
29720;SDS011;23665;51.044;3.748;2022-10-26T16:36:50;7.70;;;2.10;;
29720;SDS011;23665;51.044;3.748;2022-10-26T16:39:16;7.70;;;1.90;;
29720;SDS011;23665;51.044;3.748;2022-10-26T16:41:42;6.97;;;1.80;;
29720;SDS011;23665;51.044;3.748;2022-10-26T16:44:10;10.83;;;2.20;;
29720;SDS011;23665;51.044;3.748;2022-10-26T16:46:37;9.93;;;3.10;;
29720;SDS011;23665;51.044;3.748;2022-10-26T16:49:03;10.87;;;2.03;;
29720;SDS011;23665;51.044;3.748;2022-10-26T16:51:29;7.97;;;2.20;;
29720;SDS011;23665;51.044;3.748;2022-10-26T16:53:55;6.20;;;2.13;;
29720;SDS011;23665;51.044;3.748;2022-10-26T16:56:23;5.50;;;1.67;;
29720;SDS011;23665;51.044;3.748;2022-10-26T16:58:51;11.67;;;2.53;;
29720;SDS011;23665;51.044;3.748;2022-10-26T17:01:17;7.17;;;2.23;;
29720;SDS011;23665;51.044;3.748;2022-10-26T17:03:45;8.80;;;1.80;;
29720;SDS011;23665;51.044;3.748;2022-10-26T17:06:11;9.00;;;1.87;;
29720;SDS011;23665;51.044;3.748;2022-10-26T17:08:37;5.63;;;2.23;;
29720;SDS011;23665;51.044;3.748;2022-10-26T17:11:04;9.83;;;2.20;;
29720;SDS011;23665;51.044;3.748;2022-10-26T17:13:32;7.07;;;1.97;;
29720;SDS011;23665;51.044;3.748;2022-10-26T17:16:12;6.80;;;2.07;;
29720;SDS011;23665;51.044;3.748;2022-10-26T17:18:40;6.93;;;2.50;;
29720;SDS011;23665;51.044;3.748;2022-10-26T17:21:10;13.47;;;4.10;;
29720;SDS011;23665;51.044;3.748;2022-10-26T17:23:38;10.77;;;3.00;;
29720;SDS011;23665;51.044;3.748;2022-10-26T17:26:04;11.77;;;3.37;;
29720;SDS011;23665;51.044;3.748;2022-10-26T17:28:34;8.33;;;2.33;;